sensor_id;sensor_type;location;lat;lon;timestamp;temperature;humidity
46752;DHT22;32497;48.936;9.270;2023-01-23T00:02:41;0.10;91.40
46752;DHT22;32497;48.936;9.270;2023-01-23T00:07:44;0.10;91.30
46752;DHT22;32497;48.936;9.270;2023-01-23T00:12:45;0.00;91.50
46752;DHT22;32497;48.936;9.270;2023-01-23T00:17:46;0.00;91.40
46752;DHT22;32497;48.936;9.270;2023-01-23T00:22:49;0.00;91.30
46752;DHT22;32497;48.936;9.270;2023-01-23T00:27:50;0.00;91.10
46752;DHT22;32497;48.936;9.270;2023-01-23T00:32:51;0.00;91.70
46752;DHT22;32497;48.936;9.270;2023-01-23T00:37:53;0.10;91.90
46752;DHT22;32497;48.936;9.270;2023-01-23T00:42:54;0.20;91.90
46752;DHT22;32497;48.936;9.270;2023-01-23T00:47:57;0.40;91.90
46752;DHT22;32497;48.936;9.270;2023-01-23T00:52:59;0.40;91.70
46752;DHT22;32497;48.936;9.270;2023-01-23T00:58:01;0.50;91.50
46752;DHT22;32497;48.936;9.270;2023-01-23T01:03:02;0.40;91.50
46752;DHT22;32497;48.936;9.270;2023-01-23T01:08:05;0.40;91.20
46752;DHT22;32497;48.936;9.270;2023-01-23T01:13:06;0.40;91.40
46752;DHT22;32497;48.936;9.270;2023-01-23T01:18:07;0.40;91.40
46752;DHT22;32497;48.936;9.270;2023-01-23T01:23:10;0.50;91.50
46752;DHT22;32497;48.936;9.270;2023-01-23T01:28:12;0.50;91.30
46752;DHT22;32497;48.936;9.270;2023-01-23T01:33:13;0.40;91.50
46752;DHT22;32497;48.936;9.270;2023-01-23T01:38:15;0.40;91.50
46752;DHT22;32497;48.936;9.270;2023-01-23T01:43:19;0.40;91.50
46752;DHT22;32497;48.936;9.270;2023-01-23T01:48:23;0.40;91.70
46752;DHT22;32497;48.936;9.270;2023-01-23T01:53:28;0.40;91.40
46752;DHT22;32497;48.936;9.270;2023-01-23T01:58:30;0.40;91.50
46752;DHT22;32497;48.936;9.270;2023-01-23T02:03:32;0.50;91.30
46752;DHT22;32497;48.936;9.270;2023-01-23T02:08:37;0.50;91.00
46752;DHT22;32497;48.936;9.270;2023-01-23T02:13:41;0.40;91.30
46752;DHT22;32497;48.936;9.270;2023-01-23T02:18:45;0.50;91.50
46752;DHT22;32497;48.936;9.270;2023-01-23T02:23:58;0.60;91.40
46752;DHT22;32497;48.936;9.270;2023-01-23T02:29:03;0.60;90.70
46752;DHT22;32497;48.936;9.270;2023-01-23T02:34:10;0.70;90.40
46752;DHT22;32497;48.936;9.270;2023-01-23T02:39:14;0.70;90.40
46752;DHT22;32497;48.936;9.270;2023-01-23T02:44:20;0.70;90.20
46752;DHT22;32497;48.936;9.270;2023-01-23T02:49:26;0.50;90.10
46752;DHT22;32497;48.936;9.270;2023-01-23T02:54:27;0.40;90.20
46752;DHT22;32497;48.936;9.270;2023-01-23T02:59:30;0.30;90.30
46752;DHT22;32497;48.936;9.270;2023-01-23T03:04:31;0.40;90.10
46752;DHT22;32497;48.936;9.270;2023-01-23T03:09:33;0.40;90.20
46752;DHT22;32497;48.936;9.270;2023-01-23T03:14:35;0.50;89.80
46752;DHT22;32497;48.936;9.270;2023-01-23T03:19:37;0.40;90.00
46752;DHT22;32497;48.936;9.270;2023-01-23T03:24:38;0.40;89.90
46752;DHT22;32497;48.936;9.270;2023-01-23T03:29:41;0.40;90.10
46752;DHT22;32497;48.936;9.270;2023-01-23T03:34:43;0.50;90.10
46752;DHT22;32497;48.936;9.270;2023-01-23T03:39:44;0.50;90.00
46752;DHT22;32497;48.936;9.270;2023-01-23T03:44:47;0.50;90.00
46752;DHT22;32497;48.936;9.270;2023-01-23T03:49:49;0.50;89.70
46752;DHT22;32497;48.936;9.270;2023-01-23T03:54:50;0.50;89.80
46752;DHT22;32497;48.936;9.270;2023-01-23T03:59:53;0.40;89.90
46752;DHT22;32497;48.936;9.270;2023-01-23T04:04:58;0.50;89.90
46752;DHT22;32497;48.936;9.270;2023-01-23T04:10:00;0.40;89.70
46752;DHT22;32497;48.936;9.270;2023-01-23T04:15:03;0.30;89.60
46752;DHT22;32497;48.936;9.270;2023-01-23T04:20:05;0.30;89.90
46752;DHT22;32497;48.936;9.270;2023-01-23T04:25:07;0.20;89.80
46752;DHT22;32497;48.936;9.270;2023-01-23T04:30:10;0.20;89.90
46752;DHT22;32497;48.936;9.270;2023-01-23T04:35:12;0.20;90.10
46752;DHT22;32497;48.936;9.270;2023-01-23T04:40:16;0.20;90.10
46752;DHT22;32497;48.936;9.270;2023-01-23T04:45:28;0.30;90.00
46752;DHT22;32497;48.936;9.270;2023-01-23T04:50:48;0.30;89.70
46752;DHT22;32497;48.936;9.270;2023-01-23T04:55:49;0.40;89.70
46752;DHT22;32497;48.936;9.270;2023-01-23T05:00:53;0.30;89.70
46752;DHT22;32497;48.936;9.270;2023-01-23T05:06:00;0.40;89.50
46752;DHT22;32497;48.936;9.270;2023-01-23T05:11:03;0.30;89.50
46752;DHT22;32497;48.936;9.270;2023-01-23T05:16:06;0.40;89.50
46752;DHT22;32497;48.936;9.270;2023-01-23T05:21:25;0.30;89.40
46752;DHT22;32497;48.936;9.270;2023-01-23T05:26:28;0.40;89.60
46752;DHT22;32497;48.936;9.270;2023-01-23T05:31:31;0.40;89.60
46752;DHT22;32497;48.936;9.270;2023-01-23T05:36:52;0.40;89.70
46752;DHT22;32497;48.936;9.270;2023-01-23T05:41:54;0.40;89.80
46752;DHT22;32497;48.936;9.270;2023-01-23T05:47:12;0.40;89.80
46752;DHT22;32497;48.936;9.270;2023-01-23T05:52:13;0.40;90.00
46752;DHT22;32497;48.936;9.270;2023-01-23T05:57:14;0.40;90.00
46752;DHT22;32497;48.936;9.270;2023-01-23T06:02:40;0.40;89.90
46752;DHT22;32497;48.936;9.270;2023-01-23T06:07:59;0.40;89.80
46752;DHT22;32497;48.936;9.270;2023-01-23T06:13:00;0.40;89.70
46752;DHT22;32497;48.936;9.270;2023-01-23T06:18:03;0.40;89.50
46752;DHT22;32497;48.936;9.270;2023-01-23T06:23:05;0.50;89.60
46752;DHT22;32497;48.936;9.270;2023-01-23T06:28:06;0.40;89.50
46752;DHT22;32497;48.936;9.270;2023-01-23T06:33:10;0.50;89.60
46752;DHT22;32497;48.936;9.270;2023-01-23T06:38:15;0.60;89.50
46752;DHT22;32497;48.936;9.270;2023-01-23T06:43:16;0.40;89.70
46752;DHT22;32497;48.936;9.270;2023-01-23T06:48:19;0.40;89.80
46752;DHT22;32497;48.936;9.270;2023-01-23T06:53:22;0.40;89.80
46752;DHT22;32497;48.936;9.270;2023-01-23T06:58:25;0.40;89.70
46752;DHT22;32497;48.936;9.270;2023-01-23T07:03:28;0.40;89.90
46752;DHT22;32497;48.936;9.270;2023-01-23T07:08:31;0.50;89.80
46752;DHT22;32497;48.936;9.270;2023-01-23T07:13:33;0.40;89.70
46752;DHT22;32497;48.936;9.270;2023-01-23T07:18:36;0.40;89.90
46752;DHT22;32497;48.936;9.270;2023-01-23T07:23:40;0.40;89.70
46752;DHT22;32497;48.936;9.270;2023-01-23T07:28:41;0.40;89.90
46752;DHT22;32497;48.936;9.270;2023-01-23T07:33:44;0.50;89.80
46752;DHT22;32497;48.936;9.270;2023-01-23T07:38:45;0.50;89.60
46752;DHT22;32497;48.936;9.270;2023-01-23T07:43:46;0.60;89.50
46752;DHT22;32497;48.936;9.270;2023-01-23T07:48:48;0.60;89.20
46752;DHT22;32497;48.936;9.270;2023-01-23T07:53:49;0.60;89.30
46752;DHT22;32497;48.936;9.270;2023-01-23T07:58:50;0.60;89.10
46752;DHT22;32497;48.936;9.270;2023-01-23T08:03:53;0.70;88.90
46752;DHT22;32497;48.936;9.270;2023-01-23T08:08:54;0.80;88.80
46752;DHT22;32497;48.936;9.270;2023-01-23T08:13:55;0.90;88.70
46752;DHT22;32497;48.936;9.270;2023-01-23T08:18:57;0.90;88.20
46752;DHT22;32497;48.936;9.270;2023-01-23T08:24:00;0.90;87.50
46752;DHT22;32497;48.936;9.270;2023-01-23T08:29:01;0.90;86.70
46752;DHT22;32497;48.936;9.270;2023-01-23T08:34:03;0.90;86.70
46752;DHT22;32497;48.936;9.270;2023-01-23T08:39:05;0.90;86.10
46752;DHT22;32497;48.936;9.270;2023-01-23T08:44:06;0.90;85.10
46752;DHT22;32497;48.936;9.270;2023-01-23T08:49:08;1.00;85.20
46752;DHT22;32497;48.936;9.270;2023-01-23T08:54:09;0.90;84.60
46752;DHT22;32497;48.936;9.270;2023-01-23T08:59:10;0.90;84.20
46752;DHT22;32497;48.936;9.270;2023-01-23T09:04:13;1.10;84.10
46752;DHT22;32497;48.936;9.270;2023-01-23T09:09:14;1.10;82.30
46752;DHT22;32497;48.936;9.270;2023-01-23T09:14:15;1.40;81.70
46752;DHT22;32497;48.936;9.270;2023-01-23T09:19:17;1.70;80.50
46752;DHT22;32497;48.936;9.270;2023-01-23T09:24:19;1.60;81.00
46752;DHT22;32497;48.936;9.270;2023-01-23T09:29:20;1.60;81.10
46752;DHT22;32497;48.936;9.270;2023-01-23T09:34:22;1.50;81.30
46752;DHT22;32497;48.936;9.270;2023-01-23T09:39:23;1.60;81.10
46752;DHT22;32497;48.936;9.270;2023-01-23T09:44:31;1.60;81.10
46752;DHT22;32497;48.936;9.270;2023-01-23T09:49:41;1.60;81.50
46752;DHT22;32497;48.936;9.270;2023-01-23T09:54:47;1.70;81.80
46752;DHT22;32497;48.936;9.270;2023-01-23T09:59:50;1.70;81.30
46752;DHT22;32497;48.936;9.270;2023-01-23T10:04:56;1.70;81.50
46752;DHT22;32497;48.936;9.270;2023-01-23T10:10:09;1.70;81.60
46752;DHT22;32497;48.936;9.270;2023-01-23T10:15:26;1.70;81.00
46752;DHT22;32497;48.936;9.270;2023-01-23T10:20:53;2.10;80.40
46752;DHT22;32497;48.936;9.270;2023-01-23T10:25:57;2.60;78.80
46752;DHT22;32497;48.936;9.270;2023-01-23T10:31:03;2.30;78.80
46752;DHT22;32497;48.936;9.270;2023-01-23T10:36:16;2.30;79.90
46752;DHT22;32497;48.936;9.270;2023-01-23T10:41:19;2.40;78.80
46752;DHT22;32497;48.936;9.270;2023-01-23T10:46:30;2.40;79.40
46752;DHT22;32497;48.936;9.270;2023-01-23T10:51:43;2.60;79.00
46752;DHT22;32497;48.936;9.270;2023-01-23T10:56:52;2.70;79.50
46752;DHT22;32497;48.936;9.270;2023-01-23T11:01:59;2.90;78.00
46752;DHT22;32497;48.936;9.270;2023-01-23T11:07:05;2.40;78.80
46752;DHT22;32497;48.936;9.270;2023-01-23T11:12:15;2.10;80.10
46752;DHT22;32497;48.936;9.270;2023-01-23T11:17:22;2.10;80.40
46752;DHT22;32497;48.936;9.270;2023-01-23T11:22:28;2.30;79.50
46752;DHT22;32497;48.936;9.270;2023-01-23T11:27:30;2.50;79.30
46752;DHT22;32497;48.936;9.270;2023-01-23T11:32:33;2.80;78.70
46752;DHT22;32497;48.936;9.270;2023-01-23T11:37:38;2.90;77.60
46752;DHT22;32497;48.936;9.270;2023-01-23T11:42:41;2.60;78.40
46752;DHT22;32497;48.936;9.270;2023-01-23T11:48:05;2.20;78.80
46752;DHT22;32497;48.936;9.270;2023-01-23T11:53:19;1.90;80.40
46752;DHT22;32497;48.936;9.270;2023-01-23T11:58:39;1.80;81.60
46752;DHT22;32497;48.936;9.270;2023-01-23T12:04:07;2.10;80.80
46752;DHT22;32497;48.936;9.270;2023-01-23T12:09:17;2.40;80.10
46752;DHT22;32497;48.936;9.270;2023-01-23T12:14:25;2.80;78.40
46752;DHT22;32497;48.936;9.270;2023-01-23T12:19:42;2.70;78.80
46752;DHT22;32497;48.936;9.270;2023-01-23T12:25:05;2.70;79.00
46752;DHT22;32497;48.936;9.270;2023-01-23T12:30:20;2.70;79.40
46752;DHT22;32497;48.936;9.270;2023-01-23T12:35:31;2.60;79.40
46752;DHT22;32497;48.936;9.270;2023-01-23T12:40:46;2.60;80.10
46752;DHT22;32497;48.936;9.270;2023-01-23T12:45:54;2.80;79.30
46752;DHT22;32497;48.936;9.270;2023-01-23T12:51:01;3.10;78.90
46752;DHT22;32497;48.936;9.270;2023-01-23T12:56:10;3.40;77.30
46752;DHT22;32497;48.936;9.270;2023-01-23T13:01:27;3.20;77.80
46752;DHT22;32497;48.936;9.270;2023-01-23T13:06:49;3.10;78.60
46752;DHT22;32497;48.936;9.270;2023-01-23T13:12:00;3.10;78.10
46752;DHT22;32497;48.936;9.270;2023-01-23T13:17:30;3.10;78.40
46752;DHT22;32497;48.936;9.270;2023-01-23T13:22:31;3.40;77.50
46752;DHT22;32497;48.936;9.270;2023-01-23T13:27:39;4.00;76.40
46752;DHT22;32497;48.936;9.270;2023-01-23T13:32:40;3.70;75.60
46752;DHT22;32497;48.936;9.270;2023-01-23T13:37:50;3.70;78.10
46752;DHT22;32497;48.936;9.270;2023-01-23T13:42:53;3.70;76.90
46752;DHT22;32497;48.936;9.270;2023-01-23T13:48:37;4.30;74.90
46752;DHT22;32497;48.936;9.270;2023-01-23T13:53:44;4.70;73.00
46752;DHT22;32497;48.936;9.270;2023-01-23T13:58:49;5.20;72.20
46752;DHT22;32497;48.936;9.270;2023-01-23T14:03:53;5.30;70.80
46752;DHT22;32497;48.936;9.270;2023-01-23T14:08:55;5.60;69.40
46752;DHT22;32497;48.936;9.270;2023-01-23T14:14:00;4.90;71.40
46752;DHT22;32497;48.936;9.270;2023-01-23T14:19:01;4.10;75.00
46752;DHT22;32497;48.936;9.270;2023-01-23T14:24:20;3.70;76.20
46752;DHT22;32497;48.936;9.270;2023-01-23T14:29:24;3.30;77.70
46752;DHT22;32497;48.936;9.270;2023-01-23T14:34:26;3.10;78.90
46752;DHT22;32497;48.936;9.270;2023-01-23T14:39:29;2.80;80.30
46752;DHT22;32497;48.936;9.270;2023-01-23T14:44:37;2.80;80.10
46752;DHT22;32497;48.936;9.270;2023-01-23T14:49:39;2.90;80.10
46752;DHT22;32497;48.936;9.270;2023-01-23T14:54:43;2.80;80.20
46752;DHT22;32497;48.936;9.270;2023-01-23T14:59:46;2.70;80.10
46752;DHT22;32497;48.936;9.270;2023-01-23T15:05:06;2.60;80.60
46752;DHT22;32497;48.936;9.270;2023-01-23T15:10:13;2.60;80.90
46752;DHT22;32497;48.936;9.270;2023-01-23T15:15:19;2.40;81.80
46752;DHT22;32497;48.936;9.270;2023-01-23T15:20:29;2.40;82.00
46752;DHT22;32497;48.936;9.270;2023-01-23T15:25:32;2.40;82.20
46752;DHT22;32497;48.936;9.270;2023-01-23T15:30:40;2.30;82.50
46752;DHT22;32497;48.936;9.270;2023-01-23T15:35:43;2.20;82.40
46752;DHT22;32497;48.936;9.270;2023-01-23T15:40:44;2.20;82.70
46752;DHT22;32497;48.936;9.270;2023-01-23T15:45:46;2.20;82.50
46752;DHT22;32497;48.936;9.270;2023-01-23T15:50:47;2.30;82.50
46752;DHT22;32497;48.936;9.270;2023-01-23T15:55:48;2.20;82.80
46752;DHT22;32497;48.936;9.270;2023-01-23T16:00:51;2.20;83.10
46752;DHT22;32497;48.936;9.270;2023-01-23T16:05:52;2.20;83.20
46752;DHT22;32497;48.936;9.270;2023-01-23T16:10:54;2.10;83.30
46752;DHT22;32497;48.936;9.270;2023-01-23T16:15:57;2.10;83.60
46752;DHT22;32497;48.936;9.270;2023-01-23T16:20:58;2.10;83.70
46752;DHT22;32497;48.936;9.270;2023-01-23T16:25:59;2.10;83.90
46752;DHT22;32497;48.936;9.270;2023-01-23T16:31:01;2.10;83.70
46752;DHT22;32497;48.936;9.270;2023-01-23T16:36:03;2.10;83.70
46752;DHT22;32497;48.936;9.270;2023-01-23T16:41:04;2.10;84.20
46752;DHT22;32497;48.936;9.270;2023-01-23T16:46:08;2.10;84.00
46752;DHT22;32497;48.936;9.270;2023-01-23T16:51:16;2.10;84.10
46752;DHT22;32497;48.936;9.270;2023-01-23T16:56:33;2.10;84.40
46752;DHT22;32497;48.936;9.270;2023-01-23T17:01:39;2.10;84.30
46752;DHT22;32497;48.936;9.270;2023-01-23T17:06:41;2.10;84.30
46752;DHT22;32497;48.936;9.270;2023-01-23T17:11:45;2.00;84.70
46752;DHT22;32497;48.936;9.270;2023-01-23T17:16:49;2.10;84.20
46752;DHT22;32497;48.936;9.270;2023-01-23T17:21:51;2.10;84.50
46752;DHT22;32497;48.936;9.270;2023-01-23T17:26:52;2.10;84.70
46752;DHT22;32497;48.936;9.270;2023-01-23T17:31:55;2.10;84.70
46752;DHT22;32497;48.936;9.270;2023-01-23T17:36:56;2.10;84.50
46752;DHT22;32497;48.936;9.270;2023-01-23T17:41:57;2.20;84.80
46752;DHT22;32497;48.936;9.270;2023-01-23T17:46:59;2.10;84.90
46752;DHT22;32497;48.936;9.270;2023-01-23T17:52:00;2.10;85.00
46752;DHT22;32497;48.936;9.270;2023-01-23T17:57:02;2.10;85.20
46752;DHT22;32497;48.936;9.270;2023-01-23T18:02:15;2.10;85.30
46752;DHT22;32497;48.936;9.270;2023-01-23T18:07:21;2.10;85.20
46752;DHT22;32497;48.936;9.270;2023-01-23T18:12:28;2.20;85.00
46752;DHT22;32497;48.936;9.270;2023-01-23T18:17:35;2.20;85.00
46752;DHT22;32497;48.936;9.270;2023-01-23T18:22:37;2.20;85.00
46752;DHT22;32497;48.936;9.270;2023-01-23T18:27:40;2.30;85.20
46752;DHT22;32497;48.936;9.270;2023-01-23T18:38:24;2.20;85.00
46752;DHT22;32497;48.936;9.270;2023-01-23T18:43:33;2.20;85.10
46752;DHT22;32497;48.936;9.270;2023-01-23T18:48:39;2.20;85.10
46752;DHT22;32497;48.936;9.270;2023-01-23T18:53:46;2.20;85.30
46752;DHT22;32497;48.936;9.270;2023-01-23T18:59:01;2.30;85.20
46752;DHT22;32497;48.936;9.270;2023-01-23T19:04:08;2.30;85.10
46752;DHT22;32497;48.936;9.270;2023-01-23T19:09:17;2.30;85.10
46752;DHT22;32497;48.936;9.270;2023-01-23T19:14:24;2.30;85.10
46752;DHT22;32497;48.936;9.270;2023-01-23T19:19:37;2.30;85.20
46752;DHT22;32497;48.936;9.270;2023-01-23T19:24:40;2.40;84.90
46752;DHT22;32497;48.936;9.270;2023-01-23T19:29:42;2.40;85.00
46752;DHT22;32497;48.936;9.270;2023-01-23T19:34:44;2.40;84.90
46752;DHT22;32497;48.936;9.270;2023-01-23T19:39:45;2.40;84.80
46752;DHT22;32497;48.936;9.270;2023-01-23T19:44:46;2.30;85.00
46752;DHT22;32497;48.936;9.270;2023-01-23T19:49:49;2.40;85.00
46752;DHT22;32497;48.936;9.270;2023-01-23T19:54:50;2.40;84.90
46752;DHT22;32497;48.936;9.270;2023-01-23T19:59:51;2.30;85.10
46752;DHT22;32497;48.936;9.270;2023-01-23T20:04:53;2.40;84.80
46752;DHT22;32497;48.936;9.270;2023-01-23T20:09:54;2.50;84.70
46752;DHT22;32497;48.936;9.270;2023-01-23T20:14:56;2.50;84.70
46752;DHT22;32497;48.936;9.270;2023-01-23T20:19:58;2.60;84.70
46752;DHT22;32497;48.936;9.270;2023-01-23T20:24:59;2.50;84.50
46752;DHT22;32497;48.936;9.270;2023-01-23T20:30:01;2.50;84.70
46752;DHT22;32497;48.936;9.270;2023-01-23T20:35:04;2.50;84.60
46752;DHT22;32497;48.936;9.270;2023-01-23T20:40:06;2.50;84.50
46752;DHT22;32497;48.936;9.270;2023-01-23T20:45:08;2.60;84.60
46752;DHT22;32497;48.936;9.270;2023-01-23T20:50:11;2.60;84.70
46752;DHT22;32497;48.936;9.270;2023-01-23T20:55:12;2.50;84.70
46752;DHT22;32497;48.936;9.270;2023-01-23T21:00:14;2.50;84.80
46752;DHT22;32497;48.936;9.270;2023-01-23T21:05:17;2.50;84.90
46752;DHT22;32497;48.936;9.270;2023-01-23T21:10:18;2.50;85.10
46752;DHT22;32497;48.936;9.270;2023-01-23T21:15:19;2.50;85.00
46752;DHT22;32497;48.936;9.270;2023-01-23T21:20:21;2.40;85.10
46752;DHT22;32497;48.936;9.270;2023-01-23T21:25:22;2.70;85.20
46752;DHT22;32497;48.936;9.270;2023-01-23T21:30:23;2.60;84.60
46752;DHT22;32497;48.936;9.270;2023-01-23T21:35:26;2.50;85.00
46752;DHT22;32497;48.936;9.270;2023-01-23T21:40:27;2.40;85.20
46752;DHT22;32497;48.936;9.270;2023-01-23T21:45:28;2.40;85.50
46752;DHT22;32497;48.936;9.270;2023-01-23T21:50:30;2.40;85.60
46752;DHT22;32497;48.936;9.270;2023-01-23T21:55:32;2.40;85.60
46752;DHT22;32497;48.936;9.270;2023-01-23T22:00:33;2.40;85.60
46752;DHT22;32497;48.936;9.270;2023-01-23T22:05:35;2.40;85.80
46752;DHT22;32497;48.936;9.270;2023-01-23T22:10:37;2.40;85.50
46752;DHT22;32497;48.936;9.270;2023-01-23T22:15:38;2.40;85.80
46752;DHT22;32497;48.936;9.270;2023-01-23T22:20:40;2.40;85.50
46752;DHT22;32497;48.936;9.270;2023-01-23T22:25:41;2.50;85.30
46752;DHT22;32497;48.936;9.270;2023-01-23T22:30:42;2.40;85.40
46752;DHT22;32497;48.936;9.270;2023-01-23T22:35:45;2.40;85.30
46752;DHT22;32497;48.936;9.270;2023-01-23T22:40:55;2.50;85.00
46752;DHT22;32497;48.936;9.270;2023-01-23T22:46:04;2.50;85.00
46752;DHT22;32497;48.936;9.270;2023-01-23T22:51:12;2.50;85.30
46752;DHT22;32497;48.936;9.270;2023-01-23T22:56:14;2.40;85.30
46752;DHT22;32497;48.936;9.270;2023-01-23T23:01:16;2.50;85.00
46752;DHT22;32497;48.936;9.270;2023-01-23T23:06:19;2.40;85.30
46752;DHT22;32497;48.936;9.270;2023-01-23T23:11:22;2.50;84.90
46752;DHT22;32497;48.936;9.270;2023-01-23T23:16:25;2.40;85.10
46752;DHT22;32497;48.936;9.270;2023-01-23T23:21:31;2.50;85.20
46752;DHT22;32497;48.936;9.270;2023-01-23T23:26:32;2.40;85.00
46752;DHT22;32497;48.936;9.270;2023-01-23T23:31:34;2.50;85.00
46752;DHT22;32497;48.936;9.270;2023-01-23T23:36:36;2.50;85.00
46752;DHT22;32497;48.936;9.270;2023-01-23T23:41:40;2.60;84.80
46752;DHT22;32497;48.936;9.270;2023-01-23T23:46:41;2.60;84.90
46752;DHT22;32497;48.936;9.270;2023-01-23T23:51:43;2.50;85.10
46752;DHT22;32497;48.936;9.270;2023-01-23T23:56:44;2.50;84.90
